Hanstholm, Denmark
Current Conditions -  °F | °C
As of 12:50 AM on Thursday 23 Oct 2014 (Local Time) from EKYT Reporting Station
Broken Clouds Broken Clouds  
Wind Chill: 54°   Ceiling: 1500
Heat Index: 54°   Visibility: 6mi
Dew Point: 50°   Wind: 12mph
Humidity: 88%   Direction: 140°SE
Pressure: 30"   Gusts: NA
Location:  57.12°N, 8.62°E
Report Text: EKYT 222250Z 14010KT 9999 FEW010 BKN015 12/10 Q1016
Loading
Personal Weather Stations






























Interactive Weather Map
Tropical Storm Tracking
New forecast layout! Learn more

10-Day Weather Forecast

Advertisements
Track Severe Weather on mobile